Time;durP1;ratioP1;P1;durP2;ratioP2;P2;SDS_P1;SDS_P2;PMS_P1;PMS_P2;Temp;Humidity;BMP_temperature;BMP_pressure;BME280_temperature;BME280_humidity;BME280_pressure;Samples;Min_cycle;Max_cycle;Signal;HPM_P1;HPM_P2
2021/10/06 00:02:17;;;;;;;17.00;11.00;;;;;;;7.57;68.67;101234.72;116611;1199;22262;-63
2021/10/06 00:04:45;;;;;;;20.70;11.60;;;;;;;7.56;68.67;101231.38;116570;1199;22392;-63
2021/10/06 00:07:13;;;;;;;15.70;11.30;;;;;;;7.56;68.86;101234.88;116506;1201;138659;-63
2021/10/06 00:09:41;;;;;;;23.80;11.10;;;;;;;7.54;68.96;101227.52;116546;1193;23977;-64
2021/10/06 00:12:09;;;;;;;22.30;11.30;;;;;;;7.52;69.06;101232.92;116491;1200;142020;-64
2021/10/06 00:14:37;;;;;;;23.20;12.30;;;;;;;7.49;69.16;101234.05;116530;1201;22130;-63
2021/10/06 00:17:23;;;;;;;24.10;12.70;;;;;;;7.46;69.24;101231.92;116461;1197;138687;-63
2021/10/06 00:19:52;;;;;;;18.40;10.50;;;;;;;7.44;69.41;101235.42;116583;1201;22311;-64
2021/10/06 00:22:21;;;;;;;24.40;11.50;;;;;;;7.41;69.42;101231.13;116600;1200;22401;-64
2021/10/06 00:24:49;;;;;;;19.80;12.30;;;;;;;7.38;69.69;101229.80;116503;1196;137848;-64
2021/10/06 00:27:18;;;;;;;23.30;11.10;;;;;;;7.36;69.75;101229.33;116618;1200;22630;-63
2021/10/06 00:29:46;;;;;;;19.00;11.10;;;;;;;7.33;69.87;101232.62;116486;1201;138197;-63
2021/10/06 00:32:14;;;;;;;17.80;11.10;;;;;;;7.31;69.87;101228.63;116693;1199;22395;-63
2021/10/06 00:34:42;;;;;;;26.20;11.30;;;;;;;7.28;70.19;101229.89;116559;1200;22326;-63
2021/10/06 00:37:10;;;;;;;22.30;10.30;;;;;;;7.26;70.39;101231.03;116472;1200;138502;-63
2021/10/06 00:39:39;;;;;;;20.20;11.40;;;;;;;7.26;70.55;101231.98;115623;1200;22467;-61
2021/10/06 00:42:07;;;;;;;24.30;11.80;;;;;;;7.26;70.60;101234.48;116379;1195;139019;-61
2021/10/06 00:44:36;;;;;;;21.30;10.40;;;;;;;7.27;70.51;101235.22;116513;1194;22350;-60
2021/10/06 00:47:05;;;;;;;16.90;9.90;;;;;;;7.28;70.50;101235.44;116570;1200;138271;-59
2021/10/06 00:49:34;;;;;;;16.10;10.40;;;;;;;7.28;70.62;101234.93;116573;1201;23212;-59
2021/10/06 00:52:02;;;;;;;19.80;10.10;;;;;;;7.28;70.60;101235.92;116674;1200;22286;-59
2021/10/06 00:54:30;;;;;;;17.70;10.20;;;;;;;7.28;70.78;101241.69;116455;1200;138110;-59
2021/10/06 00:56:58;;;;;;;19.70;10.40;;;;;;;7.26;70.49;101241.34;116609;1201;22368;-59
2021/10/06 00:59:26;;;;;;;20.10;10.70;;;;;;;7.26;70.62;101242.80;116530;1196;139219;-58
2021/10/06 01:01:54;;;;;;;21.10;10.70;;;;;;;7.24;70.59;101240.15;116615;1200;22336;-59
2021/10/06 01:04:22;;;;;;;18.00;10.70;;;;;;;7.22;70.68;101238.67;116591;1197;22396;-59
2021/10/06 01:06:50;;;;;;;18.10;9.70;;;;;;;7.20;71.00;101236.41;116435;1200;138273;-59
2021/10/06 01:09:18;;;;;;;17.80;10.40;;;;;;;7.19;70.84;101237.91;116641;1201;22258;-59
2021/10/06 01:11:46;;;;;;;16.20;9.40;;;;;;;7.17;70.93;101236.71;116487;1200;139555;-60
2021/10/06 01:14:14;;;;;;;22.30;10.50;;;;;;;7.14;70.95;101235.46;116520;1193;23214;-60
2021/10/06 01:16:43;;;;;;;14.80;9.20;;;;;;;7.12;71.14;101238.03;116569;1197;23048;-60
2021/10/06 01:19:19;;;;;;;16.00;10.00;;;;;;;7.11;71.27;101237.65;116462;1199;137789;-60
2021/10/06 01:21:48;;;;;;;17.20;10.10;;;;;;;7.09;71.28;101237.20;116551;1194;22346;-59
2021/10/06 01:24:16;;;;;;;16.00;10.70;;;;;;;7.06;71.27;101232.80;116396;1201;138621;-60
2021/10/06 01:26:44;;;;;;;18.60;10.80;;;;;;;7.06;71.48;101238.40;116655;1194;22238;-60
2021/10/06 01:29:14;;;;;;;17.80;11.00;;;;;;;7.06;71.54;101241.28;116410;1201;138227;-60
2021/10/06 01:31:43;;;;;;;24.50;10.30;;;;;;;7.06;71.65;101243.02;116577;1195;23350;-59
2021/10/06 01:34:12;;;;;;;14.70;9.60;;;;;;;7.05;71.75;101243.40;116520;1196;22989;-59
2021/10/06 01:36:40;;;;;;;17.50;10.20;;;;;;;7.03;71.71;101241.71;116559;1201;137842;-60
2021/10/06 01:39:08;;;;;;;16.70;10.50;;;;;;;7.02;71.80;101241.02;116565;1200;22412;-59
2021/10/06 01:41:36;;;;;;;23.30;11.30;;;;;;;7.00;71.86;101238.53;116457;1201;140488;-59
2021/10/06 01:44:05;;;;;;;21.30;9.60;;;;;;;6.97;71.82;101238.20;116590;1200;23476;-59
2021/10/06 01:46:33;;;;;;;20.30;10.50;;;;;;;6.93;71.89;101234.16;116595;1199;23058;-60
2021/10/06 01:49:01;;;;;;;15.10;9.80;;;;;;;6.88;71.95;101240.21;116346;1201;138149;-59
2021/10/06 01:51:30;;;;;;;23.20;10.40;;;;;;;6.84;71.86;101243.64;116608;1201;23357;-60
2021/10/06 01:54:00;;;;;;;15.00;9.60;;;;;;;6.81;72.30;101245.11;116555;1200;139050;-60
2021/10/06 01:56:31;;;;;;;19.90;11.10;;;;;;;6.77;72.49;101242.46;116529;1201;23210;-60
2021/10/06 01:59:00;;;;;;;20.80;10.70;;;;;;;6.76;72.38;101240.16;116320;1201;139037;-59
2021/10/06 02:01:29;;;;;;;19.10;9.80;;;;;;;6.73;72.41;101243.84;116582;1201;22216;-60
2021/10/06 02:03:57;;;;;;;17.40;9.70;;;;;;;6.73;72.57;101245.34;116601;1201;22280;-59
2021/10/06 02:06:25;;;;;;;15.50;9.70;;;;;;;6.72;72.61;101245.31;116482;1200;139648;-59
2021/10/06 02:08:53;;;;;;;17.70;10.10;;;;;;;6.71;72.54;101250.30;116589;1201;22175;-59
2021/10/06 02:11:21;;;;;;;18.60;10.20;;;;;;;6.69;72.83;101252.36;116458;1200;138429;-59
2021/10/06 02:13:49;;;;;;;15.20;9.00;;;;;;;6.68;72.75;101253.42;116609;1201;23118;-59
2021/10/06 02:16:18;;;;;;;14.10;10.10;;;;;;;6.66;72.90;101252.73;116556;1201;22332;-59
2021/10/06 02:18:47;;;;;;;19.90;9.60;;;;;;;6.66;73.09;101261.56;116497;1201;138169;-59
2021/10/06 02:23:52;;;;;;;20.20;10.70;;;;;;;6.64;73.24;101264.48;110773;1213;546698;-60
2021/10/06 02:26:20;;;;;;;19.80;9.70;;;;;;;6.59;73.40;101266.38;115924;1205;22424;-60
2021/10/06 02:28:48;;;;;;;17.20;10.50;;;;;;;6.58;73.47;101267.77;116168;1205;22389;-60
2021/10/06 02:31:16;;;;;;;20.60;10.00;;;;;;;6.57;73.68;101264.34;115980;1205;137999;-60
2021/10/06 02:33:45;;;;;;;19.20;9.30;;;;;;;6.55;73.68;101268.52;116040;1200;22413;-60
2021/10/06 02:36:13;;;;;;;17.00;10.80;;;;;;;6.53;73.83;101268.98;115992;1205;137647;-60
2021/10/06 02:38:41;;;;;;;16.70;9.50;;;;;;;6.52;73.81;101268.55;116028;1198;23249;-60
2021/10/06 02:41:09;;;;;;;15.20;9.90;;;;;;;6.51;73.74;101267.95;112399;1198;138394;-60
2021/10/06 02:43:37;;;;;;;17.60;10.20;;;;;;;6.50;74.03;101268.07;115867;1206;23231;-60
2021/10/06 02:46:05;;;;;;;21.60;10.10;;;;;;;6.48;74.07;101269.10;116046;1206;22389;-60
2021/10/06 02:48:34;;;;;;;16.50;9.60;;;;;;;6.47;74.12;101269.92;115865;1205;139349;-60
2021/10/06 02:51:02;;;;;;;15.00;10.20;;;;;;;6.47;74.26;101275.75;115959;1205;22345;-60
2021/10/06 02:53:32;;;;;;;14.80;9.60;;;;;;;6.46;74.27;101278.49;115925;1206;138254;-60
2021/10/06 02:56:00;;;;;;;19.00;9.60;;;;;;;6.45;74.43;101278.81;116057;1206;23149;-60
2021/10/06 02:58:28;;;;;;;19.90;9.40;;;;;;;6.44;74.98;101281.54;115972;1205;22308;-60
2021/10/06 03:00:56;;;;;;;15.90;9.50;;;;;;;6.41;75.10;101284.53;115924;1205;137854;-60
2021/10/06 03:03:24;;;;;;;18.50;9.90;;;;;;;6.41;75.00;101287.05;116002;1205;23923;-60
2021/10/06 03:05:52;;;;;;;20.80;9.70;;;;;;;6.39;75.20;101286.48;115906;1206;138117;-60
2021/10/06 03:08:20;;;;;;;15.70;9.10;;;;;;;6.40;75.21;101292.73;116015;1205;22290;-60
2021/10/06 03:10:48;;;;;;;15.00;10.10;;;;;;;6.40;75.41;101294.77;116016;1206;22322;-60
2021/10/06 03:13:16;;;;;;;15.20;8.90;;;;;;;6.38;75.53;101296.41;115896;1205;137975;-60
2021/10/06 03:15:44;;;;;;;13.40;8.20;;;;;;;6.38;75.56;101300.13;115957;1205;22360;-60
2021/10/06 03:18:12;;;;;;;16.70;8.70;;;;;;;6.38;75.45;101302.54;116408;1201;138875;-60
2021/10/06 03:20:41;;;;;;;16.90;9.40;;;;;;;6.38;75.66;101304.73;116538;1201;22234;-60
2021/10/06 03:23:09;;;;;;;13.80;8.90;;;;;;;6.38;75.71;101307.70;116452;1201;138775;-60
2021/10/06 03:25:37;;;;;;;15.30;10.00;;;;;;;6.37;75.77;101310.10;116575;1201;22999;-60
2021/10/06 03:28:05;;;;;;;20.30;9.80;;;;;;;6.35;75.58;101312.11;116521;1201;22340;-60
2021/10/06 03:30:33;;;;;;;21.00;8.60;;;;;;;6.34;75.92;101310.27;116396;1201;138177;-60
2021/10/06 03:33:01;;;;;;;12.90;8.60;;;;;;;6.32;75.81;101307.09;116591;1201;22156;-61
2021/10/06 03:35:30;;;;;;;15.10;8.40;;;;;;;6.30;75.73;101308.22;116054;1202;137721;-61
2021/10/06 03:37:58;;;;;;;16.00;8.50;;;;;;;6.30;75.95;101310.42;116517;1201;22728;-61
2021/10/06 03:40:26;;;;;;;14.70;8.60;;;;;;;6.28;76.12;101307.23;116527;1201;22343;-61
2021/10/06 03:42:54;;;;;;;13.20;9.70;;;;;;;6.26;76.29;101307.45;116401;1201;138998;-60
2021/10/06 03:45:22;;;;;;;14.40;8.70;;;;;;;6.25;76.36;101313.52;116519;1195;23348;-61
2021/10/06 03:47:50;;;;;;;17.60;9.50;;;;;;;6.25;76.35;101310.17;116342;1202;137438;-61
2021/10/06 03:50:19;;;;;;;15.20;9.20;;;;;;;6.23;76.35;101310.69;116495;1201;22405;-60
2021/10/06 03:52:49;;;;;;;15.10;8.90;;;;;;;6.21;76.74;101310.38;116561;1201;22097;-60
2021/10/06 03:55:18;;;;;;;16.50;8.60;;;;;;;6.19;76.70;101306.19;116367;1201;153823;-60
2021/10/06 03:57:46;;;;;;;15.60;9.90;;;;;;;6.18;76.71;101312.30;116580;1201;22372;-60
2021/10/06 04:00:14;;;;;;;15.50;8.10;;;;;;;6.16;76.95;101316.87;116342;1195;138220;-60
2021/10/06 04:02:42;;;;;;;15.50;8.40;;;;;;;6.13;77.05;101319.00;116511;1202;22353;-59
2021/10/06 04:05:10;;;;;;;14.60;9.60;;;;;;;6.12;76.89;101319.82;116406;1201;137770;-59
2021/10/06 04:07:38;;;;;;;18.50;9.60;;;;;;;6.12;77.16;101320.80;116527;1201;23339;-59
2021/10/06 04:10:26;;;;;;;;;;;;;;;6.10;77.13;101324.60;116522;1201;22386;-59
2021/10/06 04:12:54;;;;;;;13.00;9.20;;;;;;;6.09;77.23;101325.80;116383;1201;123624;-59
2021/10/06 04:15:23;;;;;;;14.60;9.20;;;;;;;6.07;77.31;101326.30;116519;1201;22320;-60
2021/10/06 04:17:51;;;;;;;15.00;9.20;;;;;;;6.04;77.36;101328.52;116379;1202;138133;-60
2021/10/06 04:20:19;;;;;;;14.00;8.40;;;;;;;6.03;77.62;101329.02;116473;1202;23133;-60
2021/10/06 04:22:47;;;;;;;17.90;10.40;;;;;;;6.01;77.58;101330.85;116538;1202;22408;-59
2021/10/06 04:25:15;;;;;;;13.40;8.40;;;;;;;6.01;77.74;101334.17;116654;1199;137911;-60
2021/10/06 04:27:43;;;;;;;15.10;9.20;;;;;;;6.02;77.91;101335.08;116594;1200;22265;-60
2021/10/06 04:30:11;;;;;;;14.00;9.00;;;;;;;6.02;77.91;101336.95;116486;1200;137672;-60
2021/10/06 04:32:41;;;;;;;11.10;8.60;;;;;;;6.03;77.99;101338.92;116724;1200;22421;-60
2021/10/06 04:35:10;;;;;;;21.30;9.00;;;;;;;6.05;78.32;101343.45;116663;1199;137738;-59
2021/10/06 04:37:38;;;;;;;21.20;9.00;;;;;;;6.06;78.14;101343.15;116735;1200;22406;-59
2021/10/06 04:40:07;;;;;;;19.00;9.40;;;;;;;6.08;78.25;101336.63;114968;1193;26048;-61
2021/10/06 04:42:38;;;;;;;17.90;8.80;;;;;;;6.10;78.53;101344.13;116597;1200;137569;-61
2021/10/06 04:45:06;;;;;;;19.30;9.30;;;;;;;6.12;78.81;101346.07;116741;1199;22318;-60
2021/10/06 04:47:40;;;;;;;16.80;8.80;;;;;;;6.13;78.57;101347.34;116407;1200;137784;-61
2021/10/06 04:50:08;;;;;;;21.50;10.30;;;;;;;6.13;78.71;101349.00;116748;1199;22318;-60
2021/10/06 04:52:37;;;;;;;16.70;9.90;;;;;;;6.15;78.77;101353.41;116606;1200;22409;-60
2021/10/06 04:55:07;;;;;;;16.50;8.90;;;;;;;6.17;78.57;101357.33;116602;1200;137345;-60
2021/10/06 04:57:36;;;;;;;16.00;8.50;;;;;;;6.18;78.61;101353.73;116725;1200;22245;-61
2021/10/06 05:00:04;;;;;;;12.20;9.00;;;;;;;6.20;78.58;101354.48;116611;1200;138725;-60
2021/10/06 05:02:34;;;;;;;12.70;8.10;;;;;;;6.23;78.76;101356.19;116604;1193;22447;-61
2021/10/06 05:05:02;;;;;;;14.70;8.50;;;;;;;6.26;78.54;101357.45;116535;1199;139575;-60
2021/10/06 05:07:30;;;;;;;16.60;9.20;;;;;;;6.28;78.63;101358.69;116619;1199;22330;-60
2021/10/06 05:09:58;;;;;;;15.50;9.00;;;;;;;6.30;78.55;101361.65;116608;1199;22308;-59
2021/10/06 05:12:26;;;;;;;14.70;7.90;;;;;;;6.32;78.46;101367.18;116601;1199;137951;-60
2021/10/06 05:14:54;;;;;;;15.80;8.90;;;;;;;6.36;78.70;101373.05;116781;1200;22342;-60
2021/10/06 05:17:22;;;;;;;12.60;8.50;;;;;;;6.38;78.58;101371.09;116551;1199;138353;-60
2021/10/06 05:19:50;;;;;;;14.30;9.10;;;;;;;6.42;78.53;101368.56;116745;1198;22361;-60
2021/10/06 05:22:19;;;;;;;12.50;8.40;;;;;;;6.45;78.48;101373.41;116659;1199;23167;-60
2021/10/06 05:24:47;;;;;;;16.00;8.40;;;;;;;6.51;78.20;101370.33;116622;1200;138625;-60
2021/10/06 05:27:15;;;;;;;17.50;8.30;;;;;;;6.57;78.44;101373.95;116732;1199;22340;-60
2021/10/06 05:29:43;;;;;;;14.50;8.40;;;;;;;6.61;78.44;101375.23;116483;1201;138202;-60
2021/10/06 05:32:11;;;;;;;15.90;8.90;;;;;;;6.66;78.39;101373.25;116639;1199;22309;-60
2021/10/06 05:34:39;;;;;;;17.30;8.10;;;;;;;6.73;78.13;101374.68;116735;1199;22196;-60
2021/10/06 05:37:07;;;;;;;13.90;8.50;;;;;;;6.80;78.19;101375.23;116669;1200;138616;-61
2021/10/06 05:39:35;;;;;;;16.60;8.60;;;;;;;6.85;77.76;101378.25;115796;1200;22550;-60
2021/10/06 05:42:03;;;;;;;17.00;9.70;;;;;;;6.89;77.82;101377.27;112344;1193;138459;-60
2021/10/06 05:44:31;;;;;;;25.20;10.20;;;;;;;6.93;77.96;101375.95;112457;1200;23786;-59
2021/10/06 05:47:00;;;;;;;16.20;8.30;;;;;;;7.00;77.72;101372.70;112369;1195;138250;-59
2021/10/06 05:49:28;;;;;;;15.10;8.90;;;;;;;7.08;77.80;101365.24;112459;1200;22438;-60
2021/10/06 05:51:56;;;;;;;16.60;9.30;;;;;;;7.12;77.55;101366.59;112403;1199;23242;-60
2021/10/06 05:54:24;;;;;;;20.20;10.30;;;;;;;7.18;77.60;101367.05;112306;1194;138532;-60
2021/10/06 05:56:54;;;;;;;15.80;9.00;;;;;;;7.23;77.37;101367.38;112576;1199;25174;-61
2021/10/06 05:59:22;;;;;;;19.40;9.50;;;;;;;7.25;77.25;101369.74;116456;1200;138326;-61
2021/10/06 06:01:50;;;;;;;19.10;8.40;;;;;;;7.29;77.25;101369.80;116642;1199;22316;-61
2021/10/06 06:04:18;;;;;;;21.60;9.60;;;;;;;7.33;77.41;101371.02;116687;1200;22255;-61
2021/10/06 06:06:46;;;;;;;18.50;9.00;;;;;;;7.35;77.26;101372.08;116589;1200;138805;-61
2021/10/06 06:09:17;;;;;;;15.70;9.00;;;;;;;7.43;77.20;101372.61;116650;1199;22319;-62
2021/10/06 06:11:45;;;;;;;23.20;11.40;;;;;;;7.52;77.36;101370.96;116495;1200;139031;-61
2021/10/06 06:14:13;;;;;;;23.40;10.20;;;;;;;7.60;77.08;101368.30;116672;1199;22243;-63
2021/10/06 06:16:41;;;;;;;15.60;9.70;;;;;;;7.66;76.99;101367.52;116706;1199;22157;-61
2021/10/06 06:19:09;;;;;;;19.30;9.70;;;;;;;7.76;76.99;101374.00;116592;1199;138406;-62
2021/10/06 06:21:38;;;;;;;17.80;9.90;;;;;;;7.88;76.88;101377.38;116542;1200;22374;-62
2021/10/06 06:24:06;;;;;;;19.10;10.80;;;;;;;7.98;76.65;101381.50;116597;1199;138419;-62
2021/10/06 06:26:34;;;;;;;19.10;10.00;;;;;;;8.08;76.53;101375.54;116617;1200;22359;-62
2021/10/06 06:29:02;;;;;;;19.60;9.60;;;;;;;8.18;76.26;101373.54;116472;1200;139007;-61
2021/10/06 06:31:30;;;;;;;22.90;9.80;;;;;;;8.27;75.90;101378.14;116539;1200;22350;-61
2021/10/06 06:33:58;;;;;;;16.90;9.30;;;;;;;8.33;75.75;101377.21;116700;1199;22339;-62
2021/10/06 06:36:26;;;;;;;18.70;10.00;;;;;;;8.38;75.52;101375.05;116564;1199;138651;-61
2021/10/06 06:38:59;;;;;;;19.90;9.80;;;;;;;8.44;75.56;101377.27;116708;1200;22258;-62
2021/10/06 06:41:27;;;;;;;17.20;9.80;;;;;;;8.48;75.32;101375.71;112621;1193;139460;-60
2021/10/06 06:43:56;;;;;;;17.10;9.50;;;;;;;8.55;75.17;101380.50;116638;1200;22224;-60
2021/10/06 06:46:24;;;;;;;25.70;10.40;;;;;;;8.59;75.10;101377.41;116710;1200;24074;-61
2021/10/06 06:48:52;;;;;;;16.60;8.90;;;;;;;8.66;75.12;101373.98;116537;1200;137951;-61
2021/10/06 06:51:20;;;;;;;22.80;10.30;;;;;;;8.74;75.02;101375.11;116629;1200;22394;-62
2021/10/06 06:53:49;;;;;;;20.20;10.60;;;;;;;8.82;74.79;101377.33;116531;1201;138066;-62
2021/10/06 06:56:17;;;;;;;22.50;10.40;;;;;;;8.90;74.58;101376.33;116740;1200;22241;-62
2021/10/06 06:58:45;;;;;;;19.20;10.70;;;;;;;8.96;74.42;101375.25;116713;1200;22321;-61
2021/10/06 10:33:49;;;;;;;17.50;6.70;;;;;;;12.69;45.87;101321.87;111253;1207;558005;-65
2021/10/06 10:36:40;;;;;;;17.00;9.10;;;;;;;12.85;45.83;101324.49;116697;1201;23679;-65
2021/10/06 10:39:35;;;;;;;11.50;6.10;;;;;;;12.83;45.78;101326.77;116396;1203;22410;-64
2021/10/06 10:42:51;;;;;;;10.30;4.50;;;;;;;12.79;45.60;101325.20;116387;1204;22312;-63
2021/10/06 10:45:44;;;;;;;9.70;4.70;;;;;;;12.72;45.96;101325.88;116686;1203;22309;-62
2021/10/06 10:48:38;;;;;;;12.10;4.20;;;;;;;12.60;45.99;101323.23;116597;1203;23598;-63
2021/10/06 10:51:47;;;;;;;12.70;4.80;;;;;;;12.48;46.45;101319.91;116727;1201;22140;-63
2021/10/06 10:54:40;;;;;;;13.20;4.20;;;;;;;12.41;46.90;101320.07;116528;1203;23113;-63
2021/10/06 10:57:29;;;;;;;10.80;4.20;;;;;;;12.38;47.30;101316.15;116705;1202;22429;-63
2021/10/06 11:00:30;;;;;;;12.70;4.80;;;;;;;12.39;47.25;101318.17;116535;1203;23067;-62
2021/10/06 11:03:19;;;;;;;7.30;4.00;;;;;;;12.39;46.76;101314.08;116653;1203;22362;-63
2021/10/06 11:06:36;;;;;;;11.00;4.10;;;;;;;12.39;46.64;101311.11;116717;1203;22192;-63
2021/10/06 11:09:31;;;;;;;5.80;3.70;;;;;;;12.36;46.34;101305.16;116498;1203;22351;-63
2021/10/06 11:12:20;;;;;;;12.40;3.90;;;;;;;12.34;46.64;101304.34;116721;1202;22296;-63
2021/10/06 11:15:15;;;;;;;16.50;4.70;;;;;;;12.34;46.90;101309.08;116718;1201;22237;-63
2021/10/06 11:18:12;;;;;;;11.70;4.10;;;;;;;12.35;47.11;101311.86;116630;1203;22288;-63
2021/10/06 11:21:04;;;;;;;5.60;3.60;;;;;;;12.37;47.39;101309.73;116580;1203;23008;-63
2021/10/06 11:23:53;;;;;;;16.80;5.10;;;;;;;12.39;47.42;101309.59;116515;1201;22250;-63
2021/10/06 11:26:42;;;;;;;9.40;3.80;;;;;;;12.41;47.28;101305.36;116647;1203;22382;-63
2021/10/06 11:29:30;;;;;;;6.80;4.70;;;;;;;12.38;47.62;101305.06;116620;1203;22265;-63
2021/10/06 11:32:19;;;;;;;7.70;4.40;;;;;;;12.35;47.83;101311.77;116481;1203;22230;-63
2021/10/06 11:34:49;;;;;;;7.90;4.00;;;;;;;12.33;47.96;101312.23;115941;1204;137812;-63
2021/10/06 11:37:18;;;;;;;10.00;4.20;;;;;;;12.30;48.02;101310.17;116268;1205;23216;-63
2021/10/06 11:39:46;;;;;;;7.60;3.80;;;;;;;12.33;48.38;101309.77;116154;1205;138353;-63
2021/10/06 11:42:16;;;;;;;11.20;4.40;;;;;;;12.36;48.49;101309.78;116201;1204;23201;-63
2021/10/06 11:44:44;;;;;;;11.50;5.10;;;;;;;12.42;48.15;101304.45;116270;1205;22327;-63
2021/10/06 11:47:16;;;;;;;15.80;4.60;;;;;;;12.46;47.24;101310.14;116202;1205;137813;-63
2021/10/06 11:49:48;;;;;;;7.10;3.60;;;;;;;12.44;46.60;101305.95;116128;1205;23040;-63
2021/10/06 11:52:18;;;;;;;8.40;3.50;;;;;;;12.44;46.52;101300.14;116135;1205;141666;-63
2021/10/06 11:54:46;;;;;;;8.00;4.40;;;;;;;12.46;46.47;101294.79;116171;1205;22414;-63
2021/10/06 11:57:17;;;;;;;6.00;3.80;;;;;;;12.48;45.75;101291.02;116076;1205;137025;-62
2021/10/06 11:59:46;;;;;;;5.20;3.20;;;;;;;12.48;45.73;101288.79;116262;1204;22344;-62
2021/10/06 12:02:15;;;;;;;15.90;4.60;;;;;;;12.49;46.42;101282.48;116344;1190;22366;-63
2021/10/06 12:04:47;;;;;;;11.40;5.90;;;;;;;12.53;46.16;101282.55;116286;1203;137170;-63
2021/10/06 12:07:16;;;;;;;17.30;4.10;;;;;;;12.57;45.38;101278.99;116438;1203;22380;-63
2021/10/06 12:09:51;;;;;;;16.30;4.00;;;;;;;12.61;44.93;101271.73;116231;1203;137761;-63
2021/10/06 12:12:23;;;;;;;9.70;4.20;;;;;;;12.63;44.80;101275.15;116275;1203;22304;-63
2021/10/06 12:14:52;;;;;;;10.00;4.80;;;;;;;12.64;44.71;101267.52;116437;1203;22415;-64
2021/10/06 12:17:23;;;;;;;7.30;5.00;;;;;;;12.66;44.65;101268.52;116255;1203;136901;-63
2021/10/06 12:19:57;;;;;;;11.60;4.90;;;;;;;12.68;44.66;101263.87;116421;1203;22248;-63
2021/10/06 12:22:36;;;;;;;9.60;4.20;;;;;;;12.71;44.17;101258.30;116131;1203;138495;-62
2021/10/06 12:25:12;;;;;;;12.40;4.90;;;;;;;12.76;44.98;101258.00;116417;1201;22340;-63
2021/10/06 12:27:48;;;;;;;12.70;4.10;;;;;;;12.82;44.66;101260.09;116316;1203;138110;-56
2021/10/06 12:30:27;;;;;;;12.20;3.90;;;;;;;12.88;43.80;101255.89;116357;1203;22256;-58
2021/10/06 12:33:01;;;;;;;9.80;3.90;;;;;;;12.92;42.92;101255.55;116547;1203;22205;-56
2021/10/06 12:35:49;;;;;;;8.80;3.40;;;;;;;12.92;43.36;101247.42;116399;1202;137162;-57
2021/10/06 12:38:21;;;;;;;7.80;3.70;;;;;;;12.95;42.77;101249.96;116514;1200;23070;-57
2021/10/06 12:40:50;;;;;;;9.70;3.80;;;;;;;12.96;42.98;101248.14;116411;1202;137292;-57
2021/10/06 12:43:27;;;;;;;14.00;4.60;;;;;;;12.96;43.13;101248.02;116534;1201;22621;-57
2021/10/06 12:46:15;;;;;;;6.20;3.90;;;;;;;12.95;43.30;101245.16;116374;1190;137988;-57
2021/10/06 12:48:46;;;;;;;8.40;3.40;;;;;;;12.98;42.88;101245.93;116500;1196;22320;-57
2021/10/06 12:51:18;;;;;;;10.80;4.50;;;;;;;12.99;42.68;101236.42;116370;1201;139064;-57
2021/10/06 12:54:20;;;;;;;11.80;4.60;;;;;;;13.00;43.34;101237.07;116532;1201;22323;-57
2021/10/06 12:56:50;;;;;;;8.30;4.20;;;;;;;13.04;42.35;101235.42;116500;1202;23141;-56
2021/10/06 12:59:26;;;;;;;11.20;4.50;;;;;;;13.05;41.07;101234.38;116340;1202;137146;-57
2021/10/06 13:01:54;;;;;;;9.40;4.00;;;;;;;13.01;40.66;101233.10;116262;1203;23983;-56
2021/10/06 13:04:22;;;;;;;6.50;4.70;;;;;;;12.96;40.99;101228.53;116388;1202;137232;-57
2021/10/06 13:06:51;;;;;;;8.60;3.80;;;;;;;12.92;41.60;101226.89;116232;1204;22365;-57
2021/10/06 13:09:19;;;;;;;8.80;3.80;;;;;;;12.91;41.70;101231.58;116402;1202;139309;-57
2021/10/06 13:11:48;;;;;;;11.70;4.20;;;;;;;12.91;41.66;101226.95;116630;1202;22347;-57
2021/10/06 13:14:17;;;;;;;6.10;4.30;;;;;;;12.89;41.98;101226.08;116466;1202;22332;-57
2021/10/06 13:16:45;;;;;;;8.60;5.70;;;;;;;12.88;41.53;101220.42;116489;1203;139457;-57
2021/10/06 13:19:13;;;;;;;19.00;9.10;;;;;;;12.86;41.57;101221.46;116551;1202;22365;-57
2021/10/06 13:21:44;;;;;;;17.80;8.20;;;;;;;12.85;41.57;101217.55;116524;1203;137363;-58
2021/10/06 13:24:13;;;;;;;11.40;5.50;;;;;;;12.83;41.41;101218.39;116467;1201;22271;-57
2021/10/06 13:26:46;;;;;;;13.50;5.40;;;;;;;12.80;41.52;101219.95;116642;1202;22292;-57
2021/10/06 13:29:24;;;;;;;6.20;3.30;;;;;;;12.76;41.00;101218.69;116418;1202;137271;-57
2021/10/06 13:31:55;;;;;;;6.80;3.90;;;;;;;12.73;41.07;101219.77;116628;1202;23458;-57
2021/10/06 13:34:23;;;;;;;13.70;3.80;;;;;;;12.70;41.33;101218.84;116490;1202;136990;-57
2021/10/06 13:36:52;;;;;;;16.60;4.50;;;;;;;12.69;40.51;101217.29;116654;1202;22334;-57
2021/10/06 13:39:20;;;;;;;8.50;4.10;;;;;;;12.66;40.95;101220.86;116451;1203;138261;-57
2021/10/06 13:41:48;;;;;;;16.10;9.60;;;;;;;12.65;41.24;101220.27;116604;1203;22419;-57
2021/10/06 13:44:16;;;;;;;7.80;3.80;;;;;;;12.63;40.96;101221.27;116551;1201;22300;-58
2021/10/06 13:46:44;;;;;;;9.50;4.30;;;;;;;12.61;40.30;101218.42;116478;1201;137573;-57
2021/10/06 13:49:12;;;;;;;13.40;6.10;;;;;;;12.60;40.67;101221.50;116537;1203;23059;-57
2021/10/06 13:51:40;;;;;;;8.20;4.70;;;;;;;12.58;40.77;101215.85;116493;1201;138864;-57
2021/10/06 13:54:08;;;;;;;8.40;4.10;;;;;;;12.57;40.82;101218.00;116579;1202;22255;-57
2021/10/06 13:56:36;;;;;;;8.10;3.90;;;;;;;12.55;40.80;101215.02;116604;1203;23525;-56
2021/10/06 13:59:04;;;;;;;8.10;3.20;;;;;;;12.55;40.95;101215.35;116480;1201;137236;-58
2021/10/06 14:01:34;;;;;;;10.40;3.10;;;;;;;12.53;40.12;101213.23;116516;1196;22259;-57
2021/10/06 14:04:02;;;;;;;6.50;3.00;;;;;;;12.52;40.49;101214.39;116404;1201;137159;-57
2021/10/06 14:06:31;;;;;;;9.30;3.00;;;;;;;12.51;40.59;101214.23;116651;1202;22911;-62
2021/10/06 14:08:59;;;;;;;7.70;3.30;;;;;;;12.48;40.24;101214.42;116525;1201;22345;-62
2021/10/06 14:11:27;;;;;;;9.40;3.20;;;;;;;12.45;40.62;101217.07;116476;1201;136874;-62
2021/10/06 14:13:56;;;;;;;9.10;3.30;;;;;;;12.43;40.89;101216.52;116541;1202;24584;-62
2021/10/06 14:16:25;;;;;;;10.10;5.40;;;;;;;12.40;40.80;101216.50;116510;1201;138741;-62
2021/10/06 14:18:59;;;;;;;12.90;3.70;;;;;;;12.37;41.03;101219.15;116533;1201;22351;-61
2021/10/06 14:21:27;;;;;;;15.00;4.50;;;;;;;12.34;41.03;101219.60;116518;1203;138422;-62
2021/10/06 14:23:56;;;;;;;7.50;3.40;;;;;;;12.32;41.16;101217.23;116543;1202;23268;-62
2021/10/06 14:26:25;;;;;;;5.40;3.30;;;;;;;12.29;41.24;101216.27;116635;1203;22390;-62
2021/10/06 14:28:54;;;;;;;8.40;3.30;;;;;;;12.27;41.24;101219.38;116441;1202;137575;-62
2021/10/06 14:31:25;;;;;;;11.60;4.30;;;;;;;12.24;40.97;101223.17;116643;1196;22983;-61
2021/10/06 14:33:57;;;;;;;9.80;4.20;;;;;;;12.20;40.85;101220.86;116121;1203;138220;-61
2021/10/06 14:36:26;;;;;;;13.30;4.80;;;;;;;12.15;41.28;101220.77;116584;1203;23130;-62
2021/10/06 14:38:54;;;;;;;8.50;3.80;;;;;;;12.14;41.35;101222.68;116589;1201;22523;-61
2021/10/06 14:41:22;;;;;;;6.90;3.30;;;;;;;12.10;41.29;101221.94;116479;1203;137786;-62
2021/10/06 14:43:50;;;;;;;6.30;3.80;;;;;;;12.07;41.32;101218.39;116580;1203;23548;-61
2021/10/06 14:46:18;;;;;;;10.40;3.80;;;;;;;12.03;41.78;101220.90;116489;1203;137615;-61
2021/10/06 14:48:47;;;;;;;7.40;3.70;;;;;;;11.99;42.17;101226.23;116546;1203;22377;-61
2021/10/06 14:51:17;;;;;;;12.40;3.40;;;;;;;11.95;42.06;101227.09;116473;1201;137509;-61
2021/10/06 14:53:45;;;;;;;10.30;3.80;;;;;;;11.90;42.27;101226.13;116448;1197;23136;-61
2021/10/06 14:56:13;;;;;;;15.10;4.00;;;;;;;11.87;41.91;101228.13;116138;1204;23225;-61
2021/10/06 14:58:41;;;;;;;7.40;3.70;;;;;;;11.82;41.96;101233.60;116472;1202;137320;-61
2021/10/06 15:01:09;;;;;;;19.40;4.20;;;;;;;11.76;41.90;101232.98;116581;1196;23157;-62
2021/10/06 15:03:40;;;;;;;12.20;4.60;;;;;;;11.73;42.20;101232.73;116382;1195;138373;-62
2021/10/06 15:06:09;;;;;;;12.80;4.70;;;;;;;11.68;42.35;101236.89;116547;1201;22243;-62